createdAt,value
2023-06-17T00:00:28.396Z,18.63
2023-06-17T00:03:31.323Z,18.59
2023-06-17T00:06:33.723Z,18.59
2023-06-17T00:09:36.487Z,18.75
2023-06-17T00:12:40.598Z,18.69
2023-06-17T00:15:43.664Z,18.82
2023-06-17T00:18:48.945Z,18.90
2023-06-17T00:21:51.655Z,18.90
2023-06-17T00:24:53.984Z,18.97
2023-06-17T00:27:56.699Z,18.82
2023-06-17T00:30:59.105Z,18.79
2023-06-17T00:34:01.709Z,18.83
2023-06-17T00:37:04.373Z,18.60
2023-06-17T00:40:09.535Z,18.68
2023-06-17T00:43:12.017Z,18.66
2023-06-17T00:46:35.290Z,18.49
2023-06-17T00:49:41.212Z,18.47
2023-06-17T00:52:46.502Z,18.39
2023-06-17T00:55:49.063Z,18.41
2023-06-17T00:58:52.536Z,18.39
2023-06-17T01:01:54.966Z,18.51
2023-06-17T01:04:58.357Z,18.34
2023-06-17T01:08:16.216Z,18.38
2023-06-17T01:11:22.297Z,18.43
2023-06-17T01:14:27.369Z,18.38
2023-06-17T01:17:31.288Z,18.34
2023-06-17T01:20:34.159Z,18.37
2023-06-17T01:23:39.281Z,18.23
2023-06-17T01:26:42.301Z,18.31
2023-06-17T01:29:50.258Z,18.34
2023-06-17T01:32:52.963Z,18.23
2023-06-17T01:36:15.962Z,18.32
2023-06-17T01:39:22.091Z,18.39
2023-06-17T01:42:33.066Z,18.23
2023-06-17T01:45:35.990Z,18.23
2023-06-17T01:48:40.820Z,18.32
2023-06-17T01:51:43.245Z,18.26
2023-06-17T01:54:46.250Z,18.15
2023-06-17T01:57:48.919Z,18.18
2023-06-17T02:00:53.629Z,18.16
2023-06-17T02:03:56.311Z,18.23
2023-06-17T02:06:59.805Z,18.06
2023-06-17T02:10:04.815Z,18.02
2023-06-17T02:13:09.393Z,18.00
2023-06-17T02:16:12.230Z,18.03
2023-06-17T02:19:15.972Z,17.97
2023-06-17T02:22:18.770Z,17.92
2023-06-17T02:25:21.590Z,17.79
2023-06-17T02:28:24.334Z,17.82
2023-06-17T02:31:28.812Z,17.84
2023-06-17T02:34:34.307Z,17.85
2023-06-17T02:37:37.392Z,17.83
2023-06-17T02:40:40.885Z,17.77
2023-06-17T02:43:44.374Z,17.79
2023-06-17T02:46:47.144Z,17.88
2023-06-17T02:49:49.580Z,17.88
2023-06-17T02:52:57.346Z,17.86
2023-06-17T02:56:00.356Z,17.73
2023-06-17T02:59:04.375Z,17.85
2023-06-17T03:02:07.605Z,17.85
2023-06-17T03:05:10.623Z,17.91
2023-06-17T03:08:16.010Z,17.79
2023-06-17T03:11:18.987Z,17.73
2023-06-17T03:14:22.043Z,17.76
2023-06-17T03:17:26.230Z,17.74
2023-06-17T03:20:30.010Z,17.66
2023-06-17T03:23:32.949Z,17.66
2023-06-17T03:26:35.789Z,17.61
2023-06-17T03:29:38.416Z,17.50
2023-06-17T03:32:41.050Z,17.51
2023-06-17T03:35:44.033Z,17.66
2023-06-17T03:38:46.895Z,17.64
2023-06-17T03:41:49.961Z,17.69
2023-06-17T03:44:52.944Z,17.84
2023-06-17T03:47:56.066Z,17.85
2023-06-17T03:50:58.563Z,17.91
2023-06-17T03:54:03.739Z,17.80
2023-06-17T03:57:08.685Z,17.93
2023-06-17T04:00:12.650Z,17.91
2023-06-17T04:03:16.913Z,17.91
2023-06-17T04:06:21.207Z,17.96
2023-06-17T04:09:23.597Z,17.94
2023-06-17T04:12:26.269Z,18.03
2023-06-17T04:15:28.813Z,17.95
2023-06-17T04:18:32.364Z,18.08
2023-06-17T04:21:35.800Z,17.94
2023-06-17T04:24:39.438Z,17.92
2023-06-17T04:27:42.346Z,17.93
2023-06-17T04:30:46.849Z,18.06
2023-06-17T04:33:49.399Z,18.14
2023-06-17T04:36:58.051Z,18.23
2023-06-17T04:40:01.748Z,18.21
2023-06-17T04:43:05.824Z,18.13
2023-06-17T04:46:09.409Z,18.38
2023-06-17T04:49:13.163Z,18.26
2023-06-17T04:52:15.559Z,18.29
2023-06-17T04:55:19.801Z,18.29
2023-06-17T04:58:22.362Z,18.52
2023-06-17T05:01:25.904Z,18.54
2023-06-17T05:04:28.507Z,18.63
2023-06-17T05:07:31.365Z,18.62
2023-06-17T05:10:33.895Z,18.65
2023-06-17T05:13:36.618Z,18.61
2023-06-17T05:16:39.275Z,18.54
2023-06-17T05:19:42.111Z,18.74
2023-06-17T05:22:44.539Z,18.80
2023-06-17T05:25:47.297Z,18.85
2023-06-17T05:28:49.841Z,18.82
2023-06-17T05:31:52.870Z,18.81
2023-06-17T05:34:55.663Z,18.95
2023-06-17T05:37:58.337Z,19.05
2023-06-17T05:41:00.981Z,19.15
2023-06-17T05:44:04.467Z,19.24
2023-06-17T05:47:07.367Z,19.43
2023-06-17T05:50:11.036Z,19.42
2023-06-17T05:53:14.150Z,19.56
2023-06-17T05:56:17.864Z,19.63
2023-06-17T05:59:20.391Z,19.58
2023-06-17T06:02:23.514Z,19.59
2023-06-17T06:05:26.173Z,19.63
2023-06-17T06:08:28.559Z,19.72
2023-06-17T06:11:31.214Z,19.88
2023-06-17T06:14:34.220Z,19.83
2023-06-17T06:17:37.036Z,19.89
2023-06-17T06:20:39.545Z,19.90
2023-06-17T06:23:42.686Z,20.03
2023-06-17T06:26:45.417Z,20.00
2023-06-17T06:29:48.898Z,20.14
2023-06-17T06:32:51.340Z,20.12
2023-06-17T06:35:54.130Z,20.25
2023-06-17T06:39:16.121Z,20.23
2023-06-17T06:42:19.342Z,20.45
2023-06-17T06:45:22.105Z,20.53
2023-06-17T06:48:24.805Z,20.76
2023-06-17T06:51:27.276Z,20.73
2023-06-17T06:54:30.537Z,20.87
2023-06-17T06:57:33.290Z,20.93
2023-06-17T07:00:35.971Z,21.16
2023-06-17T07:03:38.842Z,21.22
2023-06-17T07:06:42.131Z,21.47
2023-06-17T07:09:45.374Z,21.65
2023-06-17T07:12:48.101Z,21.69
2023-06-17T07:15:51.311Z,21.84
2023-06-17T07:18:54.427Z,21.89
2023-06-17T07:21:57.297Z,22.01
2023-06-17T07:25:00.457Z,22.09
2023-06-17T07:28:03.076Z,22.22
2023-06-17T07:31:06.859Z,22.27
2023-06-17T07:34:09.178Z,22.53
2023-06-17T07:37:12.182Z,22.72
2023-06-17T07:40:14.933Z,22.88
2023-06-17T07:43:17.991Z,22.94
2023-06-17T07:46:20.548Z,23.11
2023-06-17T07:49:23.235Z,23.23
2023-06-17T07:52:25.706Z,23.37
2023-06-17T07:55:30.328Z,23.51
2023-06-17T07:58:32.750Z,23.73
2023-06-17T08:01:36.586Z,23.87
2023-06-17T08:04:39.349Z,23.99
2023-06-17T08:07:41.800Z,24.29
2023-06-17T08:10:44.693Z,24.55
2023-06-17T08:13:47.418Z,24.81
2023-06-17T08:16:50.234Z,25.16
2023-06-17T08:19:52.655Z,25.45
2023-06-17T08:22:55.398Z,25.66
2023-06-17T08:25:58.011Z,25.82
2023-06-17T08:29:00.640Z,25.95
2023-06-17T08:32:03.237Z,26.22
2023-06-17T08:35:08.010Z,26.42
2023-06-17T08:38:10.671Z,26.57
2023-06-17T08:41:13.895Z,26.61
2023-06-17T08:44:17.091Z,26.52
2023-06-17T08:47:20.053Z,26.57
2023-06-17T08:50:23.066Z,26.55
2023-06-17T08:53:27.465Z,26.56
2023-06-17T08:56:29.909Z,26.73
2023-06-17T08:59:32.655Z,26.89
2023-06-17T09:02:37.050Z,26.84
2023-06-17T09:05:40.051Z,26.74
2023-06-17T09:08:43.877Z,26.95
2023-06-17T09:11:55.127Z,27.07
2023-06-17T09:14:57.532Z,27.19
2023-06-17T09:18:00.474Z,27.28
2023-06-17T09:21:03.965Z,27.55
2023-06-17T09:24:10.159Z,27.66
2023-06-17T09:27:21.713Z,27.95
2023-06-17T09:30:25.435Z,28.12
2023-06-17T09:33:28.459Z,28.49
2023-06-17T09:36:31.228Z,28.76
2023-06-17T09:39:34.770Z,28.98
2023-06-17T09:42:38.477Z,29.17
2023-06-17T09:45:41.221Z,29.09
2023-06-17T09:48:43.825Z,28.98
2023-06-17T09:51:48.324Z,28.91
2023-06-17T09:54:53.094Z,28.94
2023-06-17T09:57:56.737Z,28.91
2023-06-17T10:01:01.782Z,28.96
2023-06-17T10:04:05.218Z,29.10
2023-06-17T10:07:08.453Z,29.16
2023-06-17T10:10:14.676Z,29.34
2023-06-17T10:13:20.500Z,29.52
2023-06-17T10:16:27.454Z,29.67
2023-06-17T10:19:33.374Z,29.68
2023-06-17T10:22:38.866Z,29.87
2023-06-17T10:25:41.706Z,30.04
2023-06-17T10:28:58.416Z,30.19
2023-06-17T10:32:17.614Z,30.14
2023-06-17T10:35:21.040Z,30.22
2023-06-17T10:38:30.837Z,30.03
2023-06-17T10:41:39.641Z,30.15
2023-06-17T10:44:44.624Z,30.16
2023-06-17T10:47:50.634Z,30.35
2023-06-17T10:50:55.353Z,30.53
2023-06-17T10:53:58.132Z,30.68
2023-06-17T10:57:05.884Z,30.68
2023-06-17T11:00:11.416Z,30.54
2023-06-17T11:03:18.100Z,30.44
2023-06-17T11:06:20.797Z,30.50
2023-06-17T11:09:26.946Z,30.64
2023-06-17T11:12:29.699Z,30.78
2023-06-17T11:15:32.146Z,30.82
2023-06-17T11:18:40.169Z,30.70
2023-06-17T11:21:42.900Z,30.70
2023-06-17T11:24:46.415Z,30.61
2023-06-17T11:27:49.055Z,30.68
2023-06-17T11:30:51.694Z,30.70
2023-06-17T11:34:00.798Z,30.87
2023-06-17T11:37:07.899Z,30.99
2023-06-17T11:40:12.250Z,30.67
2023-06-17T11:43:17.663Z,30.53
2023-06-17T11:46:24.661Z,30.36
2023-06-17T11:49:30.254Z,30.04
2023-06-17T11:52:36.348Z,29.48
2023-06-17T11:55:39.735Z,29.49
2023-06-17T11:58:43.511Z,29.53
2023-06-17T12:01:49.322Z,29.60
2023-06-17T12:04:52.102Z,29.56
2023-06-17T12:07:57.695Z,29.58
2023-06-17T12:11:08.593Z,29.61
2023-06-17T12:14:14.123Z,29.33
2023-06-17T12:17:17.751Z,29.16
2023-06-17T12:20:24.447Z,28.84
2023-06-17T12:23:28.334Z,29.02
2023-06-17T12:26:35.979Z,28.88
2023-06-17T12:29:38.701Z,28.93
2023-06-17T12:32:41.489Z,28.97
2023-06-17T12:35:44.309Z,28.96
2023-06-17T12:38:47.544Z,28.90
2023-06-17T12:41:52.506Z,29.00
2023-06-17T12:44:55.053Z,28.98
2023-06-17T12:47:59.272Z,28.88
2023-06-17T12:51:02.114Z,28.87
2023-06-17T12:54:04.696Z,28.79
2023-06-17T12:57:08.739Z,28.61
2023-06-17T13:00:16.427Z,28.39
2023-06-17T13:03:19.132Z,28.14
2023-06-17T13:06:24.949Z,28.00
2023-06-17T13:09:27.390Z,27.98
2023-06-17T13:12:30.025Z,27.97
2023-06-17T13:15:32.433Z,28.00
2023-06-17T13:18:36.239Z,28.06
2023-06-17T13:21:38.986Z,27.99
2023-06-17T13:24:44.106Z,27.82
2023-06-17T13:27:46.738Z,27.90
2023-06-17T13:30:50.312Z,27.90
2023-06-17T13:33:52.713Z,27.91
2023-06-17T13:36:56.054Z,27.92
2023-06-17T13:39:58.616Z,27.92
2023-06-17T13:43:02.355Z,27.85
2023-06-17T13:46:05.984Z,27.68
2023-06-17T13:49:09.037Z,27.74
2023-06-17T13:52:12.808Z,27.69
2023-06-17T13:55:15.769Z,27.73
2023-06-17T13:58:18.199Z,27.66
2023-06-17T14:01:21.337Z,27.65
2023-06-17T14:04:25.150Z,27.61
2023-06-17T14:07:27.599Z,27.56
2023-06-17T14:10:36.303Z,27.54
2023-06-17T14:13:38.758Z,27.39
2023-06-17T14:16:41.627Z,27.24
2023-06-17T14:19:44.081Z,27.28
2023-06-17T14:22:46.803Z,27.23
2023-06-17T14:26:04.300Z,27.18
2023-06-17T14:29:09.111Z,27.27
2023-06-17T14:32:20.450Z,27.20
2023-06-17T14:35:26.088Z,27.06
2023-06-17T14:38:28.466Z,26.98
2023-06-17T14:41:33.660Z,26.84
2023-06-17T14:44:36.440Z,26.85
2023-06-17T14:47:42.715Z,26.71
2023-06-17T14:50:55.030Z,26.63
2023-06-17T14:53:57.754Z,26.56
2023-06-17T14:57:02.655Z,26.51
2023-06-17T15:00:06.586Z,26.54
2023-06-17T15:03:11.437Z,26.62
2023-06-17T15:06:19.976Z,26.66
2023-06-17T15:09:28.293Z,26.66
2023-06-17T15:12:31.255Z,26.58
2023-06-17T15:15:33.665Z,26.44
2023-06-17T15:18:39.491Z,26.44
2023-06-17T15:21:42.709Z,26.38
2023-06-17T15:24:51.431Z,26.30
2023-06-17T15:27:53.768Z,26.22
2023-06-17T15:30:57.618Z,25.99
2023-06-17T15:34:00.876Z,26.01
2023-06-17T15:37:03.728Z,25.97
2023-06-17T15:40:12.954Z,25.81
2023-06-17T15:43:17.114Z,25.72
2023-06-17T15:46:21.606Z,25.67
2023-06-17T15:49:24.413Z,25.63
2023-06-17T15:52:28.644Z,25.55
2023-06-17T15:55:34.985Z,25.42
2023-06-17T15:58:37.521Z,25.35
2023-06-17T16:01:40.221Z,25.28
2023-06-17T16:04:45.131Z,25.12
2023-06-17T16:07:47.524Z,25.14
2023-06-17T16:10:50.323Z,25.05
2023-06-17T16:13:52.650Z,24.98
2023-06-17T16:16:55.631Z,24.78
2023-06-17T16:19:59.184Z,24.81
2023-06-17T16:23:03.397Z,24.75
2023-06-17T16:26:05.803Z,24.66
2023-06-17T16:29:12.360Z,24.65
2023-06-17T16:32:14.836Z,24.59
2023-06-17T16:35:17.489Z,24.58
2023-06-17T16:38:22.551Z,24.57
2023-06-17T16:41:25.208Z,24.55
2023-06-17T16:44:27.706Z,24.54
2023-06-17T16:47:46.148Z,24.51
2023-06-17T16:50:51.350Z,24.49
2023-06-17T16:53:56.474Z,24.45
2023-06-17T16:56:58.851Z,24.44
2023-06-17T17:00:04.116Z,24.40
2023-06-17T17:03:08.201Z,24.37
2023-06-17T17:06:11.015Z,24.35
2023-06-17T17:09:13.389Z,22.80
2023-06-17T17:12:16.142Z,22.20
2023-06-17T17:15:22.871Z,21.70
2023-06-17T17:18:28.742Z,21.11
2023-06-17T17:21:31.675Z,20.65
2023-06-17T17:24:36.815Z,20.44
2023-06-17T17:27:39.504Z,20.25
2023-06-17T17:30:45.051Z,20.23
2023-06-17T17:33:47.470Z,20.02
2023-06-17T17:36:55.296Z,20.08
2023-06-17T17:39:57.791Z,20.03
2023-06-17T17:43:00.544Z,20.04
2023-06-17T17:46:05.319Z,19.86
2023-06-17T17:49:08.109Z,19.95
2023-06-17T17:52:10.955Z,19.95
2023-06-17T17:55:18.654Z,20.00
2023-06-17T17:58:21.647Z,20.11
2023-06-17T18:01:24.281Z,20.05
2023-06-17T18:04:27.235Z,20.08
2023-06-17T18:07:32.561Z,20.12
2023-06-17T18:10:36.517Z,20.23
2023-06-17T18:13:47.684Z,20.13
2023-06-17T18:16:50.420Z,20.11
2023-06-17T18:19:53.480Z,20.15
2023-06-17T18:22:56.582Z,20.09
2023-06-17T18:25:59.006Z,20.20
2023-06-17T18:29:04.352Z,20.25
2023-06-17T18:32:11.955Z,20.16
2023-06-17T18:35:16.584Z,20.26
2023-06-17T18:38:19.135Z,20.19
2023-06-17T18:41:26.929Z,20.27
2023-06-17T18:44:29.461Z,20.31
2023-06-17T18:47:34.541Z,20.37
2023-06-17T18:50:37.396Z,20.32
2023-06-17T18:53:40.942Z,20.34
2023-06-17T18:56:45.457Z,20.39
2023-06-17T18:59:50.871Z,20.31
2023-06-17T19:02:55.836Z,20.44
2023-06-17T19:05:58.752Z,20.39
2023-06-17T19:09:01.265Z,20.51
2023-06-17T19:12:07.536Z,20.56
2023-06-17T19:15:13.162Z,20.53
2023-06-17T19:18:18.315Z,20.55
2023-06-17T19:21:26.510Z,20.58
2023-06-17T19:24:44.125Z,20.65
2023-06-17T19:27:54.269Z,20.63
2023-06-17T19:30:58.996Z,20.62
2023-06-17T19:34:02.301Z,20.63
2023-06-17T19:37:05.145Z,20.56
2023-06-17T19:40:08.491Z,20.63
2023-06-17T19:43:11.074Z,20.49
2023-06-17T19:46:15.730Z,20.62
2023-06-17T19:49:19.505Z,20.58
2023-06-17T19:52:22.439Z,20.44
2023-06-17T19:55:25.847Z,20.54
2023-06-17T19:58:28.556Z,20.40
2023-06-17T20:01:31.712Z,20.50
2023-06-17T20:04:35.278Z,20.39
2023-06-17T20:07:37.835Z,20.40
2023-06-17T20:10:41.722Z,20.34
2023-06-17T20:13:44.056Z,20.26
2023-06-17T20:16:46.633Z,20.43
2023-06-17T20:19:49.019Z,20.39
2023-06-17T20:22:51.968Z,20.31
2023-06-17T20:25:54.533Z,20.44
2023-06-17T20:28:57.188Z,20.46
2023-06-17T20:31:59.549Z,20.38
2023-06-17T20:35:02.286Z,20.32
2023-06-17T20:38:04.749Z,20.32
2023-06-17T20:41:07.382Z,20.41
2023-06-17T20:44:09.900Z,20.40
2023-06-17T20:47:12.848Z,20.25
2023-06-17T20:50:15.482Z,20.32
2023-06-17T20:53:18.309Z,20.32
2023-06-17T20:56:23.050Z,20.36
2023-06-17T20:59:25.848Z,20.37
2023-06-17T21:02:28.330Z,20.17
2023-06-17T21:05:31.226Z,20.16
2023-06-17T21:08:33.858Z,20.31
2023-06-17T21:11:36.542Z,20.22
2023-06-17T21:14:38.923Z,20.22
2023-06-17T21:17:41.881Z,20.20
2023-06-17T21:20:44.267Z,20.24
2023-06-17T21:23:47.111Z,20.29
2023-06-17T21:26:49.488Z,20.15
2023-06-17T21:29:52.175Z,20.00
2023-06-17T21:32:54.845Z,19.79
2023-06-17T21:35:57.546Z,19.97
2023-06-17T21:38:59.951Z,19.87
2023-06-17T21:42:02.586Z,19.80
2023-06-17T21:45:05.444Z,19.68
2023-06-17T21:48:08.168Z,19.68
2023-06-17T21:51:10.713Z,19.69
2023-06-17T21:54:13.408Z,19.89
2023-06-17T21:57:16.190Z,19.72
2023-06-17T22:00:20.195Z,19.70
2023-06-17T22:03:24.030Z,19.76
2023-06-17T22:06:26.570Z,19.76
2023-06-17T22:09:29.406Z,19.74
2023-06-17T22:12:32.060Z,19.84
2023-06-17T22:15:34.828Z,19.88
2023-06-17T22:18:37.163Z,19.82
2023-06-17T22:21:39.801Z,19.69
2023-06-17T22:24:42.662Z,19.67
2023-06-17T22:27:46.569Z,19.60
2023-06-17T22:30:48.861Z,19.56
2023-06-17T22:33:51.526Z,19.69
2023-06-17T22:36:53.880Z,19.52
2023-06-17T22:39:56.561Z,19.66
2023-06-17T22:42:59.200Z,19.76
2023-06-17T22:46:03.636Z,19.75
2023-06-17T22:49:06.056Z,19.76
2023-06-17T22:52:08.795Z,19.58
2023-06-17T22:55:11.315Z,19.40
2023-06-17T22:58:13.978Z,19.23
2023-06-17T23:01:16.443Z,19.06
2023-06-17T23:04:19.167Z,19.10
2023-06-17T23:07:21.497Z,19.20
2023-06-17T23:10:24.414Z,19.18
2023-06-17T23:13:29.889Z,19.14
2023-06-17T23:16:32.851Z,19.23
2023-06-17T23:19:35.441Z,19.33
2023-06-17T23:22:38.388Z,19.39
2023-06-17T23:25:40.983Z,19.43
2023-06-17T23:28:43.586Z,19.34
2023-06-17T23:31:47.145Z,19.32
2023-06-17T23:34:53.265Z,19.27
2023-06-17T23:37:56.448Z,19.39
2023-06-17T23:40:59.760Z,19.48
2023-06-17T23:44:02.330Z,19.43
2023-06-17T23:47:05.151Z,19.40
2023-06-17T23:50:08.516Z,19.39
2023-06-17T23:53:12.869Z,19.32
2023-06-17T23:56:15.216Z,19.36
2023-06-17T23:59:17.888Z,19.25
